Main page
METAR-TAF:

METAR-TAF

Airports :

Kolding Lufthavn

Kolding, Denmark

latitude: 55-26N, longitude: 009-20E, elevation: 44 m

Current weather observation

The report was made 18 minutes ago, at 18:20 UTC
Wind 4 kt from the West
Temperature 18°C
Humidity 88%
Pressure

METAR: EKVD 231820Z AUTO 27004KT //// ///////// 18/16 Q////

Time: 20:38 (18:38 UTC)

Forecast

The report was made 6 hours and 43 minutes ago, at 11:55 UTC
Forecast valid from 23 at 12 UTC to 23 at 16 UTC
Wind 6 kt from the West/Southwest
Visibility 10 km or more
Broken clouds at a height of 2000 ft
Temporary
from 23 at 12 UTC to 23 at 16 UTC
Broken clouds at a height of 500 ft
Scattered clouds at a height of 2000 ft, Cumulonimbus.
rain showers
Probability 40% :
Temporary
from 23 at 12 UTC to 23 at 16 UTC
Visibility: 2000 m
thunderstorm, rain,

TAF: EKVD 231155Z 2312/2316 24006KT 9999 BKN020 TEMPO 2312/2316 SHRA BKN005 SCT020CB PROB40 TEMPO 2312/2316 2000 TSRA

Weather observations and forecasts of more than 4000 airports (METAR and TAF reports).

The available stations are represented by yellow and red dots on the map.

Hover mouse over dot to see the name of the station.

Then click to see weather observations and forecasts.

To change the map : click on the green buttons with a black cross to zoom in, on the green button with a dash to zoom out, or on the green arrows for adjacent maps.


METAR-TAF: